Time;durP1;ratioP1;P1;durP2;ratioP2;P2;SDS_P1;SDS_P2;PMS_P1;PMS_P2;Temp;Humidity;BMP_temperature;BMP_pressure;BME280_temperature;BME280_humidity;BME280_pressure;Samples;Min_cycle;Max_cycle;Signal;HPM_P1;HPM_P2
2022/06/09 00:01:40;;;;;;;4.53;2.73;;;;;;;22.66;54.50;99042.44;4117052;28;21019;-76
2022/06/09 00:04:07;;;;;;;2.57;2.37;;;;;;;22.84;54.40;99031.22;4115721;28;20230;-76
2022/06/09 00:06:11;;;;;;;2.10;1.90;;;;;;;22.97;53.63;99048.16;4112940;28;20611;-75
2022/06/09 00:08:15;;;;;;;2.50;2.30;;;;;;;22.42;54.91;99074.41;4117212;28;20714;-75
2022/06/09 00:10:27;;;;;;;3.57;2.30;;;;;;;22.86;54.29;99046.38;4113122;28;20291;-75
2022/06/09 00:12:30;;;;;;;4.47;2.13;;;;;;;22.97;53.81;99057.09;4134394;28;20237;-75
2022/06/09 00:14:32;;;;;;;2.40;2.20;;;;;;;23.31;53.01;99048.66;4134822;28;20267;-76
2022/06/09 00:16:36;;;;;;;2.43;2.23;;;;;;;22.65;54.41;99065.16;4116651;28;20200;-75
2022/06/09 00:18:41;;;;;;;3.13;2.00;;;;;;;23.07;53.42;99058.25;4115433;28;20215;-78
2022/06/09 00:20:43;;;;;;;2.30;2.10;;;;;;;23.07;53.20;99069.13;4131774;28;20267;-75
2022/06/09 00:22:45;;;;;;;2.50;2.30;;;;;;;22.68;54.18;99080.91;4119891;28;20241;-77
2022/06/09 00:24:47;;;;;;;2.63;2.43;;;;;;;23.46;52.36;99074.28;4133620;28;20334;-75
2022/06/09 00:26:49;;;;;;;2.13;1.97;;;;;;;22.91;53.64;99077.09;4132808;28;20302;-77
2022/06/09 00:28:51;;;;;;;2.70;2.20;;;;;;;21.23;56.67;99112.50;4121644;28;20424;-77
2022/06/09 00:30:52;;;;;;;2.43;1.97;;;;;;;21.80;55.99;99103.41;4129640;28;20253;-75
2022/06/09 00:32:54;;;;;;;2.60;2.10;;;;;;;20.91;58.62;99085.97;4121584;28;20233;-75
2022/06/09 00:34:56;;;;;;;2.23;2.00;;;;;;;20.66;58.72;99096.31;4129226;28;20342;-74
2022/06/09 00:36:58;;;;;;;5.20;2.10;;;;;;;21.43;57.47;99073.34;4133474;28;20932;-76
2022/06/09 00:38:59;;;;;;;2.00;1.90;;;;;;;20.55;58.92;99092.59;4132994;28;20250;-76
2022/06/09 00:41:02;;;;;;;3.83;2.30;;;;;;;21.31;57.40;99074.25;4130512;28;20285;-77
2022/06/09 00:43:05;;;;;;;3.50;2.37;;;;;;;20.58;58.85;99101.06;4123016;28;20307;-78
2022/06/09 00:45:29;;;;;;;2.30;2.07;;;;;;;22.21;55.57;99057.09;4128913;28;20259;-76
2022/06/09 00:47:32;;;;;;;2.97;2.30;;;;;;;20.89;57.79;99107.03;4125735;28;20304;-74
2022/06/09 00:49:35;;;;;;;4.17;2.47;;;;;;;22.13;55.28;99081.88;4121720;28;20229;-76
2022/06/09 00:51:44;;;;;;;2.10;2.00;;;;;;;21.88;56.23;99085.88;4125456;28;20733;-77
2022/06/09 00:53:49;;;;;;;4.10;2.47;;;;;;;22.34;54.97;99082.97;4131905;28;20286;-74
2022/06/09 00:55:52;;;;;;;5.40;2.20;;;;;;;22.21;55.26;99093.09;4122788;28;20237;-77
2022/06/09 00:58:02;;;;;;;4.20;2.10;;;;;;;22.60;53.86;99094.91;4120147;28;20234;-76
2022/06/09 01:00:12;;;;;;;2.37;2.17;;;;;;;22.59;54.26;99104.09;4117740;28;20241;-78
2022/06/09 01:02:17;;;;;;;3.87;2.20;;;;;;;21.58;56.92;99099.78;4118301;28;20803;-74
2022/06/09 01:04:21;;;;;;;3.33;2.20;;;;;;;22.14;55.24;99091.66;4132324;28;20718;-75
2022/06/09 01:06:29;;;;;;;3.27;2.20;;;;;;;22.09;55.15;99111.34;4128226;28;20939;-78
2022/06/09 01:08:35;;;;;;;5.73;2.53;;;;;;;22.21;54.77;99113.94;4124234;28;20209;-77
2022/06/09 01:10:38;;;;;;;3.43;2.40;;;;;;;22.03;55.04;99110.44;4146776;28;20205;-75
2022/06/09 01:12:43;;;;;;;2.70;2.27;;;;;;;22.60;54.11;99089.50;4134316;28;20706;-75
2022/06/09 01:14:45;;;;;;;2.70;2.00;;;;;;;22.89;53.26;99086.53;4121084;28;20231;-75
2022/06/09 01:17:11;;;;;;;5.07;2.20;;;;;;;22.63;53.61;99097.94;4135984;28;20784;-75
2022/06/09 01:19:45;;;;;;;3.67;2.40;;;;;;;22.77;53.45;99097.53;4127030;28;20315;-77
2022/06/09 01:21:50;;;;;;;3.43;2.47;;;;;;;23.13;52.57;99096.00;4132815;28;20307;-75
2022/06/09 01:24:33;;;;;;;2.27;2.07;;;;;;;23.16;52.75;99091.94;4134006;28;20250;-75
2022/06/09 01:26:43;;;;;;;2.03;1.83;;;;;;;23.08;53.04;99095.97;4102406;28;20242;-76
2022/06/09 01:28:52;;;;;;;2.30;1.90;;;;;;;22.19;54.95;99099.84;4109094;28;20591;-76
2022/06/09 01:30:56;;;;;;;2.10;1.90;;;;;;;22.22;54.05;99102.03;4131335;28;20229;-75
2022/06/09 01:33:17;;;;;;;3.97;2.33;;;;;;;22.20;54.42;99117.72;4119579;28;20240;-77
2022/06/09 01:35:40;;;;;;;4.50;2.20;;;;;;;22.90;53.23;99093.59;4119220;28;20937;-75
2022/06/09 01:37:48;;;;;;;3.47;2.27;;;;;;;22.66;53.16;99126.44;4127743;28;20238;-77
2022/06/09 01:39:55;;;;;;;2.60;2.20;;;;;;;21.87;54.97;99141.91;4121538;28;20240;-74
2022/06/09 01:41:57;;;;;;;2.30;2.10;;;;;;;22.06;54.63;99118.06;4121025;28;20247;-77
2022/06/09 01:44:01;;;;;;;5.73;2.30;;;;;;;21.81;55.06;99137.47;4119630;28;20238;-76
2022/06/09 01:46:07;;;;;;;2.60;2.40;;;;;;;21.57;55.48;99138.72;4113665;28;20269;-78
2022/06/09 01:48:13;;;;;;;3.60;2.30;;;;;;;22.45;53.41;99111.81;4133811;28;20455;-77
2022/06/09 01:50:35;;;;;;;2.83;2.50;;;;;;;21.96;54.41;99134.19;4116347;28;20777;-75
2022/06/09 01:52:41;;;;;;;3.97;2.30;;;;;;;22.39;53.32;99145.31;4131087;28;20230;-75
2022/06/09 01:54:45;;;;;;;3.77;2.87;;;;;;;21.99;54.25;99141.81;4129511;28;20298;-77
2022/06/09 01:56:52;;;;;;;3.40;2.23;;;;;;;22.06;53.86;99138.94;4121705;28;20722;-77
2022/06/09 01:58:59;;;;;;;3.37;2.93;;;;;;;21.70;54.97;99133.81;4133912;28;20757;-77
2022/06/09 02:01:02;;;;;;;9.60;2.13;;;;;;;20.97;56.77;99130.13;4130763;28;20675;-74
2022/06/09 02:03:13;;;;;;;6.07;2.37;;;;;;;22.53;53.34;99110.56;4133372;28;20255;-78
2022/06/09 02:05:26;;;;;;;4.60;2.70;;;;;;;22.37;52.83;99132.06;4134259;28;20237;-74
2022/06/09 02:07:32;;;;;;;5.73;2.47;;;;;;;22.44;53.17;99124.56;4133918;28;20245;-75
2022/06/09 02:09:37;;;;;;;5.77;2.60;;;;;;;21.74;54.13;99153.09;4132704;28;20296;-75
2022/06/09 02:11:51;;;;;;;2.47;2.27;;;;;;;21.79;53.83;99142.34;4129639;28;20312;-75
2022/06/09 02:13:56;;;;;;;2.67;2.00;;;;;;;22.06;53.13;99139.72;4128407;28;20291;-75
2022/06/09 02:16:04;;;;;;;5.07;2.50;;;;;;;22.74;51.93;99141.41;4134029;28;20244;-77
2022/06/09 02:18:15;;;;;;;4.60;2.70;;;;;;;21.72;53.79;99161.44;4130909;28;20232;-75
2022/06/09 02:20:20;;;;;;;6.60;2.50;;;;;;;21.95;53.28;99159.63;4127043;28;20237;-75
2022/06/09 02:22:22;;;;;;;4.63;1.93;;;;;;;22.26;52.88;99141.91;4110419;28;20242;-75
2022/06/09 02:24:23;;;;;;;5.23;2.67;;;;;;;21.65;53.01;99160.78;4133362;28;20222;-74
2022/06/09 02:26:25;;;;;;;4.07;2.20;;;;;;;22.21;52.66;99141.84;4133300;28;20233;-76
2022/06/09 02:28:27;;;;;;;5.83;2.30;;;;;;;21.53;54.18;99146.50;4133205;28;20258;-77
2022/06/09 02:30:28;;;;;;;7.37;2.80;;;;;;;22.04;52.69;99152.72;4134555;28;20756;-75
2022/06/09 02:32:49;;;;;;;3.93;2.23;;;;;;;22.07;51.89;99154.91;4127782;28;20243;-76
2022/06/09 02:34:51;;;;;;;3.50;2.20;;;;;;;21.35;53.99;99156.50;4133407;28;20299;-75
2022/06/09 02:36:53;;;;;;;5.20;2.20;;;;;;;21.38;53.58;99160.59;4133467;28;20252;-74
2022/06/09 02:38:54;;;;;;;8.00;2.37;;;;;;;22.03;52.47;99134.00;4129330;28;20300;-76
2022/06/09 02:40:56;;;;;;;2.77;2.00;;;;;;;21.47;53.24;99179.94;4134167;28;20225;-74
2022/06/09 02:42:58;;;;;;;4.03;2.20;;;;;;;21.61;53.23;99139.84;4132130;28;20288;-76
2022/06/09 02:44:59;;;;;;;3.70;2.43;;;;;;;21.89;52.48;99147.88;4133283;28;20271;-75
2022/06/09 02:47:01;;;;;;;4.97;2.20;;;;;;;21.23;53.62;99176.56;4133616;28;20934;-76
2022/06/09 02:49:03;;;;;;;4.00;1.97;;;;;;;21.43;53.64;99155.28;4131016;28;20229;-77
2022/06/09 02:51:15;;;;;;;4.70;2.47;;;;;;;21.23;54.17;99155.75;4134512;28;20241;-75
2022/06/09 02:53:16;;;;;;;4.53;2.60;;;;;;;21.88;52.47;99148.13;4131291;28;20225;-75
2022/06/09 02:55:23;;;;;;;4.20;2.70;;;;;;;21.79;52.24;99166.69;4131869;28;20298;-78
2022/06/09 02:57:25;;;;;;;6.63;2.50;;;;;;;21.45;53.54;99144.22;4133533;28;20303;-77
2022/06/09 02:59:27;;;;;;;7.97;2.50;;;;;;;21.45;53.70;99153.13;4133941;28;20229;-77
2022/06/09 03:01:29;;;;;;;3.93;2.00;;;;;;;21.58;53.04;99156.56;4132903;28;20241;-76
2022/06/09 03:03:33;;;;;;;3.20;2.17;;;;;;;21.93;52.84;99156.31;4133352;28;20268;-75
2022/06/09 03:05:36;;;;;;;6.07;2.23;;;;;;;22.26;51.93;99152.72;4133238;28;20761;-75
2022/06/09 03:07:37;;;;;;;5.03;2.10;;;;;;;21.72;53.02;99188.50;4134107;28;20771;-75
2022/06/09 03:09:40;;;;;;;3.43;2.47;;;;;;;22.03;52.31;99175.41;4128104;28;20237;-76
2022/06/09 03:11:42;;;;;;;3.60;2.53;;;;;;;21.83;52.65;99183.25;4132368;28;20754;-77
2022/06/09 03:13:44;;;;;;;5.50;2.90;;;;;;;21.60;53.38;99195.84;4133396;28;20237;-75
2022/06/09 03:15:47;;;;;;;3.87;2.43;;;;;;;22.03;52.59;99175.41;4129054;28;20344;-76
2022/06/09 03:17:50;;;;;;;6.63;3.50;;;;;;;22.51;51.52;99177.69;4131985;28;20291;-76
2022/06/09 03:19:52;;;;;;;5.87;3.00;;;;;;;21.86;52.62;99194.38;4134635;28;21286;-77
2022/06/09 03:21:54;;;;;;;7.77;2.87;;;;;;;21.14;54.55;99206.69;4133733;28;20295;-74
2022/06/09 03:23:57;;;;;;;5.13;2.60;;;;;;;21.58;52.91;99192.59;4133237;28;20605;-74
2022/06/09 03:25:59;;;;;;;7.47;2.90;;;;;;;21.83;52.66;99185.94;4132897;28;20301;-75
2022/06/09 03:28:00;;;;;;;6.43;2.90;;;;;;;21.81;52.95;99180.78;4133194;28;20229;-75
2022/06/09 03:30:06;;;;;;;6.67;3.00;;;;;;;21.64;52.71;99190.81;4129413;28;20315;-77
2022/06/09 03:32:08;;;;;;;4.83;2.57;;;;;;;21.28;53.81;99198.28;4132248;28;21034;-74
2022/06/09 03:34:09;;;;;;;5.60;2.90;;;;;;;21.33;53.48;99180.25;4133910;28;20233;-75
2022/06/09 03:36:13;;;;;;;5.87;3.30;;;;;;;21.28;53.31;99201.00;4133243;28;20267;-76
2022/06/09 03:38:15;;;;;;;6.77;3.10;;;;;;;22.02;52.02;99168.38;4131586;28;20652;-73
2022/06/09 03:40:19;;;;;;;4.90;2.67;;;;;;;22.03;51.95;99178.13;4128616;28;20280;-74
2022/06/09 03:42:20;;;;;;;3.57;2.87;;;;;;;21.62;52.78;99199.13;4130354;28;20237;-75
2022/06/09 03:44:22;;;;;;;4.50;3.40;;;;;;;22.31;51.35;99184.50;4133228;28;20653;-75
2022/06/09 03:46:23;;;;;;;5.83;2.80;;;;;;;21.88;52.22;99202.25;4129501;28;20230;-73
2022/06/09 03:48:26;;;;;;;6.63;3.90;;;;;;;21.58;52.45;99214.22;4135351;28;20590;-72
2022/06/09 03:50:31;;;;;;;4.83;3.43;;;;;;;21.69;52.41;99210.63;4137226;28;20201;-73
2022/06/09 03:52:33;;;;;;;4.83;3.10;;;;;;;22.25;51.06;99196.31;4134496;28;20236;-73
2022/06/09 03:54:35;;;;;;;5.57;3.40;;;;;;;20.89;53.78;99220.50;4133572;28;21026;-72
2022/06/09 03:56:36;;;;;;;4.67;3.20;;;;;;;21.14;53.33;99214.81;4127662;28;20633;-72
2022/06/09 03:58:38;;;;;;;6.07;3.47;;;;;;;21.14;53.14;99208.56;4145153;28;20213;-72
2022/06/09 04:00:39;;;;;;;5.03;2.87;;;;;;;20.77;53.89;99225.94;4132503;28;20218;-72
2022/06/09 04:02:41;;;;;;;3.97;3.13;;;;;;;20.86;53.73;99212.88;4133107;28;20722;-72
2022/06/09 04:04:43;;;;;;;8.83;3.43;;;;;;;20.95;53.60;99211.44;4132829;28;20356;-72
2022/06/09 04:06:44;;;;;;;6.27;3.10;;;;;;;21.10;53.57;99207.41;4132758;28;20233;-72
2022/06/09 04:08:48;;;;;;;8.57;3.20;;;;;;;21.26;52.64;99205.78;4136596;28;20237;-72
2022/06/09 04:10:51;;;;;;;6.97;3.47;;;;;;;20.73;53.76;99234.75;4136318;28;20283;-72
2022/06/09 04:12:53;;;;;;;5.97;3.17;;;;;;;20.56;53.98;99216.59;4133604;28;20291;-72
2022/06/09 04:14:55;;;;;;;5.30;3.13;;;;;;;19.85;54.87;99248.97;4136271;28;20237;-72
2022/06/09 04:16:56;;;;;;;4.17;2.67;;;;;;;20.34;54.40;99213.69;4137160;28;20237;-72
2022/06/09 04:19:03;;;;;;;6.70;3.00;;;;;;;20.95;53.38;99214.16;4134417;28;20225;-72
2022/06/09 04:21:04;;;;;;;4.83;3.30;;;;;;;20.81;53.10;99215.47;4106823;28;20237;-72
2022/06/09 04:23:29;;;;;;;6.17;2.80;;;;;;;20.51;53.80;99232.69;4134051;28;20718;-72
2022/06/09 04:25:55;;;;;;;4.57;3.10;;;;;;;20.92;52.88;99219.19;4133456;28;20537;-72
2022/06/09 04:28:22;;;;;;;9.40;3.57;;;;;;;20.12;54.53;99245.84;4135302;28;20244;-72
2022/06/09 04:30:48;;;;;;;5.93;3.60;;;;;;;20.26;54.32;99235.66;4135489;28;20243;-72
2022/06/09 04:33:13;;;;;;;7.17;3.37;;;;;;;20.81;53.33;99227.09;4135582;28;20243;-72
2022/06/09 04:35:38;;;;;;;6.50;3.33;;;;;;;19.68;55.27;99278.50;4136751;28;20355;-72
2022/06/09 04:38:07;;;;;;;5.57;3.20;;;;;;;20.21;54.66;99232.81;4133005;28;20252;-71
2022/06/09 04:40:35;;;;;;;6.00;3.57;;;;;;;20.61;53.84;99232.91;4136251;28;20225;-74
2022/06/09 04:43:05;;;;;;;6.73;3.50;;;;;;;20.65;53.47;99244.06;4133469;28;20451;-73
2022/06/09 04:45:30;;;;;;;5.47;3.20;;;;;;;20.78;53.29;99237.56;4135131;28;20295;-73
2022/06/09 04:47:57;;;;;;;6.47;3.20;;;;;;;20.89;52.94;99246.72;4132507;28;20232;-72
2022/06/09 04:50:25;;;;;;;7.43;2.93;;;;;;;20.35;54.23;99261.25;4135353;28;20726;-72
2022/06/09 04:52:52;;;;;;;7.50;3.23;;;;;;;20.56;53.78;99250.88;4131885;28;20236;-69
2022/06/09 04:55:17;;;;;;;5.23;3.47;;;;;;;20.13;54.27;99287.13;4127374;28;20378;-70
2022/06/09 04:57:43;;;;;;;6.60;3.77;;;;;;;20.66;53.67;99259.22;4132804;28;20244;-70
2022/06/09 18:06:43;;;;;;;4.80;1.95;;;;;;;25.35;40.97;99737.25;4204444;27;20228;-73
2022/06/09 18:08:44;;;;;;;5.38;1.83;;;;;;;25.24;41.57;99729.00;4223266;27;20246;-75
2022/06/09 18:10:49;;;;;;;2.85;1.50;;;;;;;25.38;41.42;99737.59;4221006;27;20246;-74
2022/06/09 18:12:54;;;;;;;1.88;1.42;;;;;;;25.73;40.67;99736.25;4220494;27;20236;-72
2022/06/09 18:14:55;;;;;;;3.90;1.50;;;;;;;25.45;40.76;99737.38;4223106;27;20288;-73
2022/06/09 18:16:57;;;;;;;4.13;1.67;;;;;;;25.29;41.37;99746.44;4219169;27;20772;-73
2022/06/09 18:18:58;;;;;;;3.97;1.80;;;;;;;25.49;41.26;99734.97;4227741;27;20301;-72
2022/06/09 18:21:01;;;;;;;3.97;1.65;;;;;;;25.28;40.92;99742.91;4229445;27;20242;-74
2022/06/09 18:23:08;;;;;;;5.05;1.65;;;;;;;24.79;41.99;99759.25;4206721;28;20234;-73
2022/06/09 18:25:11;;;;;;;3.53;1.65;;;;;;;25.33;41.19;99732.06;4231381;27;20899;-72
2022/06/09 18:27:13;;;;;;;3.00;1.30;;;;;;;24.53;42.16;99756.19;4202228;28;20749;-74
2022/06/09 18:29:15;;;;;;;5.72;1.60;;;;;;;24.30;42.91;99744.44;4226349;27;20250;-74
2022/06/09 18:31:19;;;;;;;2.75;1.45;;;;;;;24.85;42.17;99741.91;4223379;27;20234;-73
2022/06/09 18:33:21;;;;;;;3.35;1.67;;;;;;;24.76;42.35;99743.41;4233930;27;20237;-73
2022/06/09 18:35:22;;;;;;;2.88;1.48;;;;;;;24.90;41.98;99746.59;4218897;27;20293;-71
2022/06/09 18:37:25;;;;;;;2.97;1.45;;;;;;;25.09;41.78;99741.63;4230947;27;20233;-75
2022/06/09 18:39:27;;;;;;;3.20;1.23;;;;;;;25.02;41.98;99744.53;4199690;28;20306;-72
2022/06/09 18:41:29;;;;;;;3.58;1.73;;;;;;;24.78;42.72;99757.59;4234344;27;20245;-73
2022/06/09 18:43:31;;;;;;;4.28;1.60;;;;;;;25.08;42.43;99740.00;4221213;27;20230;-70
2022/06/09 18:45:36;;;;;;;2.83;1.58;;;;;;;24.91;42.88;99750.97;4227296;27;20463;-70
2022/06/09 18:47:38;;;;;;;4.60;1.83;;;;;;;24.81;42.50;99763.34;4226512;27;20319;-72
2022/06/09 18:49:41;;;;;;;3.08;1.58;;;;;;;24.74;42.84;99745.56;4223042;27;20268;-74
2022/06/09 18:51:42;;;;;;;2.83;1.35;;;;;;;24.95;42.29;99750.19;4227832;27;20287;-69
2022/06/09 18:53:44;;;;;;;5.57;1.55;;;;;;;25.02;42.63;99753.53;4217214;27;20235;-72
2022/06/09 18:55:47;;;;;;;3.53;1.70;;;;;;;25.31;41.72;99745.13;4204980;28;20968;-72
2022/06/09 18:57:48;;;;;;;2.90;1.65;;;;;;;24.95;42.82;99771.97;4222972;27;20235;-71
2022/06/09 18:59:50;;;;;;;2.58;1.80;;;;;;;24.34;43.91;99771.13;4194026;28;20265;-70
2022/06/09 19:01:52;;;;;;;4.18;1.80;;;;;;;24.77;43.65;99766.84;4218867;28;20292;-70
2022/06/09 19:03:53;;;;;;;4.93;1.50;;;;;;;24.64;43.82;99774.25;4222342;28;20242;-70
2022/06/09 19:06:01;;;;;;;2.80;1.50;;;;;;;24.81;43.85;99763.34;4224772;28;20282;-72
2022/06/09 19:08:04;;;;;;;4.20;1.60;;;;;;;24.67;43.86;99757.44;4222865;28;20233;-73
2022/06/09 19:10:11;;;;;;;2.47;1.70;;;;;;;24.97;43.39;99767.09;4213908;28;20757;-72
2022/06/09 19:12:28;;;;;;;3.28;1.70;;;;;;;24.99;43.86;99775.00;4219454;28;20226;-73
2022/06/09 19:14:33;;;;;;;3.42;1.80;;;;;;;24.56;44.58;99777.41;4229261;28;20714;-74
2022/06/09 19:16:39;;;;;;;3.63;2.03;;;;;;;23.86;46.46;99773.38;4229466;28;20225;-73
2022/06/09 19:18:41;;;;;;;2.47;1.95;;;;;;;24.20;45.85;99760.63;4229311;28;20291;-71
2022/06/09 19:20:43;;;;;;;2.33;1.50;;;;;;;23.99;45.98;99766.78;4228056;28;20264;-72
2022/06/09 19:22:45;;;;;;;4.38;1.55;;;;;;;24.27;45.48;99763.97;4221855;28;20225;-72
2022/06/09 19:24:51;;;;;;;4.22;1.60;;;;;;;24.64;44.93;99763.38;4206285;27;20234;-71
2022/06/09 19:26:54;;;;;;;4.47;1.77;;;;;;;24.56;44.92;99782.84;4223327;27;20237;-73
2022/06/09 19:28:58;;;;;;;4.15;1.70;;;;;;;24.78;44.53;99784.78;4223335;27;20298;-74
2022/06/09 19:30:59;;;;;;;3.63;1.75;;;;;;;24.09;45.62;99791.38;4223700;27;20774;-70
2022/06/09 19:33:02;;;;;;;4.65;1.90;;;;;;;23.65;46.63;99788.47;4216822;27;20323;-73
2022/06/09 19:35:05;;;;;;;5.43;1.80;;;;;;;23.58;46.67;99797.59;4205529;28;20926;-73
2022/06/09 19:37:08;;;;;;;4.80;1.70;;;;;;;23.76;46.22;99793.84;4229132;27;20372;-69
2022/06/09 19:39:09;;;;;;;3.33;1.60;;;;;;;23.53;46.88;99794.75;4229280;27;20286;-71
2022/06/09 19:41:12;;;;;;;2.95;2.28;;;;;;;23.22;47.37;99806.13;4239154;27;20233;-70
2022/06/09 19:43:15;;;;;;;3.53;1.77;;;;;;;23.72;46.91;99797.28;4231785;27;20237;-71
2022/06/09 19:45:21;;;;;;;3.88;2.45;;;;;;;23.74;46.79;99803.31;4221918;27;20316;-71
2022/06/09 19:47:43;;;;;;;4.40;1.83;;;;;;;23.89;46.60;99811.72;4213843;28;20684;-70
2022/06/09 19:49:46;;;;;;;5.78;2.20;;;;;;;23.99;46.05;99810.22;4199856;28;20231;-73
2022/06/09 19:51:48;;;;;;;2.95;1.90;;;;;;;24.21;45.50;99822.03;4221580;27;20297;-70
2022/06/09 19:53:50;;;;;;;5.70;2.20;;;;;;;24.12;45.62;99837.88;4225625;27;20237;-71
2022/06/09 19:55:53;;;;;;;5.00;2.00;;;;;;;24.09;45.97;99815.81;4238603;27;20290;-72
2022/06/09 19:57:56;;;;;;;7.00;3.00;;;;;;;23.68;46.47;99834.16;4230189;27;20317;-72
2022/06/09 19:59:58;;;;;;;6.18;3.50;;;;;;;23.73;46.37;99831.53;4231426;27;20776;-70
2022/06/09 20:02:00;;;;;;;5.57;3.40;;;;;;;23.71;46.42;99830.94;4222675;27;20237;-71
2022/06/09 20:04:02;;;;;;;9.17;3.90;;;;;;;23.31;47.09;99824.47;4228955;27;20237;-70
2022/06/09 20:06:06;;;;;;;4.30;3.10;;;;;;;23.90;46.04;99816.06;4234102;27;20237;-70
2022/06/09 20:08:15;;;;;;;6.15;3.40;;;;;;;23.29;46.79;99848.31;4222672;27;20232;-71
2022/06/09 20:10:25;;;;;;;3.88;2.63;;;;;;;22.77;47.66;99848.28;4231508;27;20490;-71
2022/06/09 20:12:27;;;;;;;5.97;2.17;;;;;;;23.06;47.24;99829.41;4213802;27;20257;-71
2022/06/09 20:14:28;;;;;;;3.70;1.90;;;;;;;23.46;46.00;99842.13;4232121;27;20689;-71
2022/06/09 20:16:31;;;;;;;5.28;1.85;;;;;;;23.92;44.86;99854.69;4198576;27;20608;-72
2022/06/09 20:18:33;;;;;;;3.30;1.90;;;;;;;24.01;44.45;99865.09;4146514;27;20851;-73
2022/06/09 20:20:41;;;;;;;5.57;2.30;;;;;;;24.31;44.01;99862.94;4194686;28;20706;-74
2022/06/09 20:22:43;;;;;;;4.00;2.17;;;;;;;24.38;43.90;99870.94;4186974;28;20844;-72
2022/06/09 20:24:46;;;;;;;4.67;1.97;;;;;;;24.67;43.57;99877.06;4193795;28;20211;-75
2022/06/09 20:26:47;;;;;;;2.73;1.70;;;;;;;24.49;43.67;99893.63;4198910;28;20674;-72
2022/06/09 20:28:50;;;;;;;4.57;2.13;;;;;;;24.57;43.56;99892.41;4202776;28;20765;-69
2022/06/09 20:30:52;;;;;;;4.00;2.17;;;;;;;23.93;44.00;99891.59;4198961;28;20281;-74
2022/06/09 20:32:54;;;;;;;4.17;1.60;;;;;;;23.35;45.02;99907.03;4191319;28;20242;-73
2022/06/09 20:34:56;;;;;;;3.90;1.90;;;;;;;23.76;44.35;99898.91;4196164;28;20606;-77
2022/06/09 20:36:58;;;;;;;6.67;2.07;;;;;;;24.47;43.46;99901.22;4193969;28;20653;-74
2022/06/09 20:38:59;;;;;;;3.97;1.90;;;;;;;24.39;43.06;99905.16;4195983;28;20239;-69
2022/06/09 20:41:03;;;;;;;6.60;2.57;;;;;;;23.87;44.07;99916.19;4191576;28;20655;-70
2022/06/09 20:43:05;;;;;;;3.47;2.20;;;;;;;24.18;43.42;99916.78;4196376;28;20266;-69
2022/06/09 20:45:08;;;;;;;5.90;2.28;;;;;;;24.63;42.93;99903.13;4199405;28;20291;-68
2022/06/09 20:47:19;;;;;;;3.93;1.90;;;;;;;24.09;43.77;99914.44;4200053;28;20227;-69
2022/06/09 20:49:27;;;;;;;5.32;2.20;;;;;;;24.68;42.97;99907.78;4196636;28;20226;-68
2022/06/09 20:51:29;;;;;;;3.73;2.20;;;;;;;24.47;43.21;99921.06;4198548;28;20333;-69
2022/06/09 20:53:31;;;;;;;3.87;2.67;;;;;;;24.36;43.52;99924.69;4199410;28;20264;-70
2022/06/09 20:55:34;;;;;;;5.00;3.10;;;;;;;23.37;44.63;99942.09;4193602;28;20235;-69
2022/06/09 20:57:37;;;;;;;5.47;3.00;;;;;;;24.00;44.04;99923.22;4204907;28;20256;-68
2022/06/09 20:59:40;;;;;;;5.93;3.43;;;;;;;24.10;44.04;99920.69;4193618;28;20254;-69
2022/06/09 21:01:42;;;;;;;7.00;4.13;;;;;;;23.87;44.36;99927.06;4203667;28;20253;-69
2022/06/09 21:03:44;;;;;;;6.53;4.00;;;;;;;23.29;45.18;99943.25;4198248;28;20250;-70
2022/06/09 21:05:48;;;;;;;5.73;3.67;;;;;;;23.34;45.38;99934.41;4194511;28;20238;-70
2022/06/09 21:07:49;;;;;;;7.28;3.63;;;;;;;23.69;44.60;99930.81;4203338;28;20639;-70
2022/06/09 21:09:51;;;;;;;6.27;3.70;;;;;;;23.43;45.06;99932.97;4201304;28;20243;-72
2022/06/09 21:18:53;;;;;;;4.97;2.53;;;;;;;23.64;44.70;99928.00;4193013;28;20273;-71
2022/06/09 21:20:55;;;;;;;7.77;3.07;;;;;;;23.88;44.42;99934.97;4202185;28;20231;-71
2022/06/09 21:22:57;;;;;;;5.93;3.10;;;;;;;23.78;44.58;99940.19;4197829;28;20279;-69
2022/06/09 21:24:59;;;;;;;4.40;2.87;;;;;;;24.02;43.90;99950.97;4200558;28;20322;-70
2022/06/09 21:27:01;;;;;;;6.23;3.10;;;;;;;24.61;43.26;99946.00;4205148;28;20670;-70
2022/06/09 21:29:03;;;;;;;4.63;2.80;;;;;;;24.44;43.16;99951.44;4201589;28;20808;-70
2022/06/09 21:31:05;;;;;;;5.30;2.70;;;;;;;24.27;43.39;99959.59;4200060;28;20239;-70
2022/06/09 21:33:07;;;;;;;5.87;2.43;;;;;;;24.55;42.52;99960.59;4197162;28;20248;-70
2022/06/09 21:35:11;;;;;;;6.60;2.40;;;;;;;24.33;42.93;99960.53;4200229;28;20238;-70
2022/06/09 21:37:18;;;;;;;6.80;2.73;;;;;;;24.38;42.66;99971.47;4204047;28;20737;-71
2022/06/09 21:39:19;;;;;;;6.10;2.80;;;;;;;23.26;44.78;99978.19;4201542;28;20323;-70
2022/06/09 21:41:21;;;;;;;6.13;2.83;;;;;;;23.02;45.26;99981.72;4176264;28;20236;-71
2022/06/09 21:43:24;;;;;;;5.23;2.50;;;;;;;22.38;46.89;99970.69;4197937;28;20307;-70
2022/06/09 21:45:25;;;;;;;8.23;2.73;;;;;;;22.08;47.48;99960.69;4199128;28;20707;-70
2022/06/09 21:47:27;;;;;;;4.17;2.50;;;;;;;22.21;47.41;99943.41;4202203;28;20235;-68
2022/06/09 21:49:29;;;;;;;7.83;2.60;;;;;;;22.89;46.21;99930.41;4197535;28;20241;-70
2022/06/09 21:51:31;;;;;;;4.97;2.60;;;;;;;22.95;46.10;99961.22;4202297;28;20249;-73
2022/06/09 21:53:32;;;;;;;8.13;3.23;;;;;;;23.15;45.54;99969.81;4196546;28;20287;-73
2022/06/09 21:55:35;;;;;;;8.27;2.60;;;;;;;22.16;47.64;99966.81;4195102;28;20242;-72
2022/06/09 21:57:37;;;;;;;2.97;2.50;;;;;;;21.90;48.01;99966.16;4202972;28;20238;-70
2022/06/09 21:59:39;;;;;;;4.57;2.70;;;;;;;22.87;46.21;99951.53;4196243;28;20251;-73
2022/06/09 22:01:40;;;;;;;6.67;2.80;;;;;;;22.88;45.97;99965.91;4199113;28;20242;-72
2022/06/09 22:03:43;;;;;;;5.80;2.87;;;;;;;22.58;46.71;99964.94;4202797;28;20242;-73
2022/06/09 22:05:46;;;;;;;5.80;2.73;;;;;;;22.37;46.99;99973.63;4198894;28;20235;-72
2022/06/09 22:07:48;;;;;;;3.83;2.50;;;;;;;22.63;46.64;99962.34;4196740;28;20276;-70
2022/06/09 22:09:49;;;;;;;6.03;2.43;;;;;;;22.69;46.57;99960.59;4203070;28;20238;-73
2022/06/09 22:11:51;;;;;;;6.30;3.17;;;;;;;22.91;46.34;99952.72;4201177;28;20663;-73
2022/06/09 22:13:52;;;;;;;7.97;3.53;;;;;;;22.51;46.64;99979.63;4202971;28;20305;-72
2022/06/09 22:15:54;;;;;;;5.50;3.00;;;;;;;22.53;47.05;99966.72;4202150;28;20734;-72
2022/06/09 22:17:56;;;;;;;4.17;2.70;;;;;;;23.38;45.33;99978.97;4197759;28;20297;-73
2022/06/09 22:19:58;;;;;;;9.33;3.10;;;;;;;23.52;45.00;99979.56;4203222;28;20773;-72
2022/06/09 22:22:00;;;;;;;4.70;2.83;;;;;;;23.01;45.94;99998.22;4203321;28;20279;-72
2022/06/09 22:24:02;;;;;;;6.07;3.10;;;;;;;22.79;46.37;99993.38;4197096;28;20227;-73
2022/06/09 22:26:03;;;;;;;5.00;3.00;;;;;;;23.07;45.41;99993.78;4203653;28;20950;-72
2022/06/09 22:28:07;;;;;;;14.47;5.07;;;;;;;22.66;46.04;100001.72;4199467;28;20291;-72
2022/06/09 22:30:15;;;;;;;18.37;12.63;;;;;;;22.43;46.59;100003.31;4198314;28;20235;-72
2022/06/09 22:32:16;;;;;;;20.43;13.33;;;;;;;22.30;46.66;100006.22;4203524;28;20739;-72
2022/06/09 22:34:18;;;;;;;15.47;9.77;;;;;;;22.04;47.39;99981.13;4201438;28;20253;-72
2022/06/09 22:36:20;;;;;;;14.00;8.87;;;;;;;22.15;47.29;99990.34;4199458;28;20575;-72
2022/06/09 22:38:22;;;;;;;12.53;8.17;;;;;;;22.34;46.85;99972.22;4198709;28;20318;-72
2022/06/09 22:40:29;;;;;;;11.33;7.57;;;;;;;22.17;47.42;99990.13;4197977;28;21066;-72
2022/06/09 22:42:30;;;;;;;10.00;7.23;;;;;;;21.45;48.46;99999.75;4152292;28;20239;-71
2022/06/09 22:44:32;;;;;;;10.50;5.67;;;;;;;22.31;46.81;99985.41;4200250;28;20222;-72
2022/06/09 22:46:34;;;;;;;13.27;6.97;;;;;;;21.55;48.36;99989.22;4192070;28;20661;-72
2022/06/09 22:48:36;;;;;;;7.93;5.67;;;;;;;22.07;46.79;100002.34;4194750;28;20247;-72
2022/06/09 22:50:38;;;;;;;7.53;5.00;;;;;;;22.19;46.82;99982.63;4191476;28;20251;-72
2022/06/09 22:52:41;;;;;;;7.37;5.30;;;;;;;22.21;46.55;99994.84;4195430;28;20231;-72
2022/06/09 22:54:43;;;;;;;6.43;4.60;;;;;;;21.86;47.41;100000.94;4188810;28;20969;-71
2022/06/09 22:56:45;;;;;;;7.60;4.63;;;;;;;21.90;47.01;100012.97;4198110;28;20207;-72
2022/06/09 22:58:50;;;;;;;6.43;4.00;;;;;;;21.27;48.43;100014.06;4195958;28;20293;-71
2022/06/09 23:00:52;;;;;;;4.00;3.07;;;;;;;21.46;47.94;100004.13;4195839;28;20229;-72
2022/06/09 23:02:54;;;;;;;6.70;3.57;;;;;;;21.43;47.84;100014.56;4201667;28;20230;-72